My Meet Scores
Sydney Harbeck, Gym Kinetics Gymnastics - MyMeetScores.com
Top100 | Top Teams | Upcoming Meets | Completed Meets | Latest | Add Scores | Help| Support | Bookmark and Share

Sydney Harbeck, Gym Kinetics Gymnastics
Personal Bests
LevelVault BarsBeamFloorAA
39.3759.525 9.6259.50037.700
49.1259.225 9.5009.37537.050
59.1009.550 9.4009.45036.625
78.9259.275 9.6009.60037.200
89.3759.100 9.3509.47536.325
Meet Scores
Date Meet Team Session Level Division Vault Bars Beam Floor AA
2020-03-06 2020 Flip'r Invitational Gym Kinetics Gymnastics 6 8 JR B 9.375 4 8.600 11 8.875 7 9.475 2 36.325 8
2020-02-21 Kinetic Classic Gym Kinetics Gymnastics 04 8 Younger 8.500 20 9.100 15 8.550 23T 9.250 10T 35.400 15
2020-01-31 Chow's Challenge Gym Kinetics Gymnastics A2 8 SR 0.000 9T 7.900 10 9.350 1 8.900 7T 26.150 9
2020-01-17 2020 Bravo Classic Gym Kinetics Gymnastics 6A 8 Jr 8.275 9 7.900 16 7.900 14 8.875 14 32.950 14
2020-01-10 Leenda's Island Adventure Gym Kinetics Gymnastics PG3 8 12 & 13 Ye 7.550 11 7.900 11 8.575 7 9.425 4 33.450 9T
2019-12-20 Aspire Classic - 2019 Gym Kinetics Gymnastics 3B 7 Older 8.825 6 9.275 4T 9.000 5 9.275 8T 36.375 5
2019-12-07 Home for the Holidays 2019 Gym Kinetics Gymnastics 6 7 Older 8.925 4 8.650 8T 0.000 11 9.600 3 27.175 11
2019-03-29 Illinois Level 7 & 8 State Meet Gym Kinetics Gymnastics 7 7 Jr F 8.850 20T 8.300 21 9.550 3 9.300 19 36.000 19T
2019-03-01 NGCD Academy's 2019 Flip'r Invitational Gym Kinetics Gymnastics 6 7 Jr B 8.750 10 9.100 5 9.425 2 9.275 5 36.550 5T
2019-02-23 Kinetic Classic 2019 Gym Kinetics Gymnastics 1 7 Middle 8.650 10T 8.900 8 9.300 5 9.175 9 36.025 7
2019-02-08 Midwest Twisters Harley Meet Womens Gym Kinetics Gymnastics O03 7 12 yrs. 8.400 14 8.925 7 8.950 6 9.275 9 35.550 7
2019-01-18 2019 Bravo Classic Gym Kinetics Gymnastics 9A 7 Child 8.900 10T 9.275 8T 9.600 2 9.425 9T 37.200 5
2019-01-11 St Jude Benefit Meet Gym Kinetics Gymnastics 5B 7 Jr B 8.575 15 9.050 12 8.950 15T 9.525 12 36.100 14
2018-12-14 2018 Aspire Classic Gym Kinetics Gymnastics 10B 7 Middle 8.450 13 8.875 11 9.050 8T 9.050 14 35.425 11
2018-03-08 Level 4 & 5 State Gym Kinetics Gymnastics 11 5 Jr C 8.975 25 8.650 15 9.400 6 9.025 16 36.050 14
2018-02-23 Kinetic Classic Gym Kinetics Gymnastics 8 5 Middle 9.100 28T 8.375 70 9.275 23 9.450 14T 36.200 32
2018-02-09 Arizona Sunrays Classic Rock Invitational Gym Kinetics Gymnastics R05 5 JrC 9.050 5 9.550 1 8.775 10 9.100 5T 36.475 4
2018-02-03 Midwest Games Gym Kinetics Gymnastics 7 5 SR 8.950 11 9.250 3 9.350 7 9.075 12T 36.625 7
2018-01-19 2018 Bravo Classic Gym Kinetics Gymnastics 3B 5 Jr 8.950 18 8.900 18 9.275 7 9.100 11T 36.225 12T
2017-12-15 2017 Aspire Classic Gym Kinetics Gymnastics 6A 5 Older 8.900 8T 8.950 4 9.175 3 9.200 7T 36.225 4
2017-03-10 2017 Illinois Level 4 State Championships Gym Kinetics Gymnastics 4 4 Youth E 9.100 7 9.200 6T 9.375 5 9.375 4 37.050 2
2017-02-24 Kinetic Classic Gym Kinetics Gymnastics 5,6 4 All Ages 8.725 65T 8.850 61T 9.125 63T 9.075 53T 35.775 65T
2017-02-09 Hal's Harley-Davidson Invite Gym Kinetics Gymnastics O10 4 10 yrs. 8.800 1 8.925 5T 9.500 3 9.075 2 36.300 1
2017-01-13 St Jude Benefit Meet Gym Kinetics Gymnastics 4A 4 Jr B 8.600 6 9.225 6 9.275 7 9.125 5 36.225 3
2016-12-16 2016 Aspire Classic Gym Kinetics Gymnastics 7 4 Middle 9.125 4 9.100 9T 9.450 8 9.300 7T 36.975 5
2016-03-04 2016 Illinois Level 3 State Championships Gym Kinetics Gymnastics 3 Junior-B 9.375 6 9.225 7 9.225 4 9.500 1 37.325 3
2016-02-20 Big Classic Gym Kinetics Gymnastics 8B 3 Child B 9.225 9 9.525 4 8.850 6 9.250 4T 36.850 6
2016-01-22 2016 Honkytonk Classic Gym Kinetics Gymnastics 02 3 Jr 9.350 2 9.250 3 9.125 2 9.450 2 37.175 2
2016-01-15 2016 Bravo Classic Gym Kinetics Gymnastics 3A 3 9+yrs 9.175 8 9.350 5 9.350 4T 9.400 2 37.275 3
2015-12-18 2015 Aspire Classic Gym Kinetics Gymnastics 10 3 Middle 9.375 8T 9.300 13 9.625 6 9.400 8 37.700 7
Get your scores on
a t-shirt, pin, or hoodie

www.lazysuits.com